Flight Track Log - Related Links

Times and Time Zones

All times are in EDT time to prevent confusion due to time zone crossing. See the CSJ405 flight status page for this flight to view local times or setup timezone preferences in your user account.

Time Position Orientation Groundspeed Altitude Reporting Facility
EDT Latitude Longitude Course Direction KTS MPH feet Rate Location/Type
Tue 09:55:31 PM 43.1253 -77.6506 67° East 89 102 1,200  Level Cleveland Center
Tue 09:56:32 PM 43.1464 -77.6581 345° North 135 155 2,200 843 Climbing Cleveland Center
Tue 09:57:32 PM 43.1458 -77.7122 269° West 145 167 2,900 709 Climbing Cleveland Center
Tue 09:58:39 PM 43.1533 -77.7714 280° West 150 173 3,700 361 Climbing Cleveland Center
Tue 10:00:35 PM 43.1667 -77.8833 279° West 173 199 4,000 99 Climbing Buffalo TRACON
Tue 10:01:41 PM 43.1667 -77.9500 270° West 176 203 4,000  Level Buffalo TRACON
Tue 10:02:41 PM 43.1667 -78.0167 270° West 174 200 4,000  Level Buffalo TRACON
Tue 10:03:41 PM 43.1667 -78.1000 270° West 176 203 4,000  Level Buffalo TRACON
Tue 10:04:25 PM 43.1500 -78.1000 180° South 170 196 4,000  Level Toronto Center
Tue 10:05:25 PM 43.1500 -78.2000 270° West 180 207 4,000  Level Toronto Center
Tue 10:06:25 PM 43.1500 -78.2333 270° West 170 196 4,000  Level Toronto Center
Tue 10:07:25 PM 43.1500 -78.3000 270° West 180 207 4,000  Level Toronto Center
Tue 10:08:25 PM 43.1500 -78.3833 270° West 170 196 4,000  Level Toronto Center
Tue 10:09:25 PM 43.1500 -78.4500 270° West 180 207 4,000  Level Toronto Center
Tue 10:10:25 PM 43.1667 -78.5167 289° West 180 207 4,000  Level Toronto Center
Tue 10:11:25 PM 43.1667 -78.5833 270° West 180 207 4,000  Level Toronto Center
Tue 10:12:25 PM 43.1667 -78.6500 270° West 180 207 4,000  Level Toronto Center
Tue 10:13:25 PM 43.1667 -78.7167 270° West 180 207 4,000  Level Toronto Center
Tue 10:14:25 PM 43.1667 -78.7833 270° West 180 207 4,000  Level Toronto Center
Tue 10:15:25 PM 43.1667 -78.8500 270° West 180 207 4,000  Level Toronto Center
Tue 10:16:25 PM 43.1667 -78.9167 270° West 180 207 4,000  Level Toronto Center
Tue 10:17:25 PM 43.1667 -79.0000 270° West 180 207 4,000  Level Toronto Center
Tue 10:18:25 PM 43.1500 -79.0667 251° West 180 207 4,000  Level Toronto Center
Tue 10:19:25 PM 43.1500 -79.1333 270° West 180 207 4,000  Level Toronto Center
Tue 10:20:25 PM 43.1500 -79.1833 270° West 180 207 4,000  Level Toronto Center
Tue 10:21:25 PM 43.1500 -79.2667 270° West 180 207 4,000  Level Toronto Center
Tue 10:22:25 PM 43.1500 -79.3333 270° West 180 207 4,000  Level Toronto Center
Tue 10:23:25 PM 43.1500 -79.3833 270° West 180 207 4,000  Level Toronto Center
Tue 10:24:25 PM 43.1500 -79.4667 270° West 180 207 4,000  Level Toronto Center
Tue 10:25:25 PM 43.1500 -79.5500 270° West 180 207 4,000  Level Toronto Center
Tue 10:26:25 PM 43.1500 -79.6167 270° West 180 207 4,000 -200 Level Toronto Center
Tue 10:27:25 PM 43.1333 -79.6833 251° West 190 219 3,600 -500 Descending Toronto Center
Tue 10:28:25 PM 43.1333 -79.7500 270° West 190 219 3,000 -800 Descending Toronto Center
Tue 10:29:25 PM 43.1500 -79.8167 289° West 190 219 2,000 -900 Descending Toronto Center
Tue 10:30:25 PM 43.1667 -79.8833 289° West 170 196 1,200 -600 Descending Toronto Center
Tue 10:31:25 PM 43.1667 -79.9000 270° West 80 92 800 -200 Descending Toronto Center
Tue 10:32:25 PM 43.1667 -79.9000 270° West 30 35 800  Level Toronto Center

Login

Don't have an account? Register now (free) for customized features, flight alerts, and more!